Time;durP1;ratioP1;P1;durP2;ratioP2;P2;SDS_P1;SDS_P2;PMS_P1;PMS_P2;Temp;Humidity;BMP_temperature;BMP_pressure;BME280_temperature;BME280_humidity;BME280_pressure;Samples;Min_cycle;Max_cycle;Signal;HPM_P1;HPM_P2
2023/12/05 00:05:31;;;;;;;;;;;;;;;-0.72;64.37;97092.16;4956237;28;19930;-87
2023/12/05 00:08:19;;;;;;;;;;;;;;;-0.62;64.86;97094.09;4970308;28;19926;-88
2023/12/05 00:11:08;;;;;;;;;;;;;;;-0.49;64.62;97085.59;4968605;28;19930;-86
2023/12/05 00:14:00;;;;;;;;;;;;;;;-0.57;64.58;97089.59;4968937;28;19934;-88
2023/12/05 00:20:00;;;;;;;;;;;;;;;-0.68;65.28;97082.59;4963792;28;20079;-84
2023/12/05 00:23:13;;;;;;;;;;;;;;;-0.80;65.69;97073.97;4963900;28;20287;-89
2023/12/05 00:26:04;;;;;;;;;;;;;;;-1.09;65.26;97069.03;4965700;28;19929;-87
2023/12/05 00:32:10;;;;;;;;;;;;;;;-0.70;64.62;97074.03;4972970;28;19945;-81
2023/12/05 00:34:58;;;;;;;;;;;;;;;-0.57;64.52;97070.91;4969352;28;19926;-88
2023/12/05 00:37:47;;;;;;;;;;;;;;;-0.64;64.83;97078.34;4969422;28;19922;-89
2023/12/05 00:40:35;;;;;;;;;;;;;;;-0.93;65.36;97080.59;4968878;28;19929;-89
2023/12/05 00:43:25;;;;;;;;;;;;;;;-0.54;64.58;97085.59;4947042;28;19922;-81
2023/12/05 00:46:13;;;;;;;;;;;;;;;-0.25;64.37;97082.50;4968265;28;20020;-88
2023/12/05 00:49:02;;;;;;;;;;;;;;;-0.38;63.90;97089.91;4970229;28;19934;-88
2023/12/05 00:51:51;;;;;;;;;;;;;;;-0.65;64.72;97084.72;4942490;28;19934;-88
2023/12/05 00:54:39;;;;;;;;;;;;;;;-0.59;65.16;97069.53;4966630;28;19934;-88
2023/12/05 00:57:52;;;;;;;;;;;;;;;-0.34;65.29;97084.88;4967508;28;20209;-88
2023/12/05 01:00:42;;;;;;;;;;;;;;;-0.29;65.69;97084.88;4969234;28;19922;-86
2023/12/05 01:03:31;;;;;;;;;;;;;;;-0.49;66.54;97082.13;4965902;28;19929;-79
2023/12/05 01:06:20;;;;;;;;;;;;;;;-0.72;67.62;97080.69;4958596;28;20016;-89
2023/12/05 01:09:10;;;;;;;;;;;;;;;-0.87;68.45;97073.41;4969198;28;20483;-89
2023/12/05 01:12:24;;;;;;;;;;;;;;;-1.14;69.58;97068.97;4971563;28;20021;-83
2023/12/05 01:15:36;;;;;;;;;;;;;;;-0.67;68.85;97084.19;4971253;28;19922;-87
2023/12/05 01:18:30;;;;;;;;;;;;;;;-1.00;69.35;97069.34;4972177;28;19922;-87
2023/12/05 01:21:18;;;;;;;;;;;;;;;-1.41;71.45;97077.06;4968412;28;20017;-89
2023/12/05 01:24:07;;;;;;;;;;;;;;;-1.93;73.43;97061.69;4971939;28;19930;-88
2023/12/05 01:26:56;;;;;;;;;;;;;;;-1.41;72.42;97061.06;4969464;28;20416;-86
2023/12/05 01:29:45;;;;;;;;;;;;;;;-1.62;72.75;97062.78;4970630;28;20381;-89
2023/12/05 01:32:34;;;;;;;;;;;;;;;-1.56;72.98;97060.16;4970905;28;19926;-88
2023/12/05 01:35:26;;;;;;;;;;;;;;;-1.87;74.03;97057.22;4971111;28;20060;-89
2023/12/05 01:38:14;;;;;;;;;;;;;;;-1.53;73.19;97055.13;4972234;28;20021;-89
2023/12/05 01:44:40;;;;;;;;;;;;;;;-1.52;72.84;97055.94;4962818;28;20357;-87
2023/12/05 01:47:30;;;;;;;;;;;;;;;-1.65;73.08;97054.47;4971443;28;19922;-89
2023/12/05 01:50:22;;;;;;;;;;;;;;;-1.39;72.71;97055.47;4952112;28;19922;-89
2023/12/05 01:53:13;;;;;;;;;;;;;;;-1.73;72.93;97047.75;4967304;28;20388;-89
2023/12/05 01:56:01;;;;;;;;;;;;;;;-1.23;72.47;97043.06;4971284;28;19941;-89
2023/12/05 01:58:50;;;;;;;;;;;;;;;-1.34;72.79;97053.66;4972986;28;19926;-89
2023/12/05 02:01:38;;;;;;;;;;;;;;;-1.43;72.31;97046.41;4959944;28;19945;-87
2023/12/05 02:04:26;;;;;;;;;;;;;;;-1.39;72.96;97044.81;4957607;28;19922;-87
2023/12/05 02:07:16;;;;;;;;;;;;;;;-1.23;72.46;97037.75;4969781;28;20422;-88
2023/12/05 02:10:07;;;;;;;;;;;;;;;-1.48;73.11;97025.06;4951616;28;20000;-88
2023/12/05 02:12:55;;;;;;;;;;;;;;;-1.46;73.39;97021.06;4962078;28;19922;-89
2023/12/05 02:15:44;;;;;;;;;;;;;;;-1.28;72.96;97014.53;4968697;28;19933;-87
2023/12/05 02:18:33;;;;;;;;;;;;;;;-1.24;72.98;97010.28;4973112;28;19922;-87
2023/12/05 02:21:25;;;;;;;;;;;;;;;-0.93;72.49;97005.13;4967443;28;19929;-87
2023/12/05 02:24:18;;;;;;;;;;;;;;;-1.33;73.78;97006.53;4966968;28;19922;-88
2023/12/05 02:27:11;;;;;;;;;;;;;;;-1.30;74.26;97008.66;4972210;28;19922;-88
2023/12/05 02:30:04;;;;;;;;;;;;;;;-1.04;73.66;96998.16;4960771;28;20407;-85
2023/12/05 02:32:54;;;;;;;;;;;;;;;-0.93;72.78;96997.13;4967461;28;20012;-88
2023/12/05 02:35:43;;;;;;;;;;;;;;;-1.19;74.40;96996.19;4970065;28;20384;-88
2023/12/05 02:38:57;;;;;;;;;;;;;;;-1.09;74.68;96997.06;4957340;28;20013;-88
2023/12/05 02:41:46;;;;;;;;;;;;;;;-1.13;75.17;96987.16;4971309;28;19933;-86
2023/12/05 02:44:37;;;;;;;;;;;;;;;-1.18;75.63;96976.47;4970252;28;20331;-90
2023/12/05 02:47:33;;;;;;;;;;;;;;;-0.93;75.19;96970.47;4970155;28;20360;-89
2023/12/05 02:50:22;;;;;;;;;;;;;;;-0.97;75.30;96961.38;4967297;28;20332;-88
2023/12/05 02:53:10;;;;;;;;;;;;;;;-1.02;75.77;96967.47;4971193;28;19933;-88
2023/12/05 02:56:00;;;;;;;;;;;;;;;-1.09;75.76;96964.25;4954543;28;19926;-86
2023/12/05 02:58:49;;;;;;;;;;;;;;;-1.07;76.51;96973.59;4970797;28;20231;-86
2023/12/05 03:01:40;;;;;;;;;;;;;;;-0.75;75.86;96962.00;4969999;28;20009;-87
2023/12/05 03:04:30;;;;;;;;;;;;;;;-0.84;76.45;96963.56;4969615;28;20024;-87
2023/12/05 03:07:19;;;;;;;;;;;;;;;-0.47;75.79;96966.09;4966246;28;19953;-86
2023/12/05 03:10:07;;;;;;;;;;;;;;;-0.31;76.27;96958.91;4969213;28;19922;-86
2023/12/05 03:12:56;;;;;;;;;;;;;;;-0.53;76.82;96961.81;4955248;28;19926;-84
2023/12/05 03:15:44;;;;;;;;;;;;;;;-0.55;77.49;96962.06;4970568;28;19941;-86
2023/12/05 03:18:36;;;;;;;;;;;;;;;-0.32;77.10;96951.97;4965988;28;20025;-87
2023/12/05 03:21:26;;;;;;;;;;;;;;;-0.10;76.33;96949.06;4964610;28;20388;-88
2023/12/05 03:24:15;;;;;;;;;;;;;;;-0.10;76.98;96954.41;4956048;28;19922;-85
2023/12/05 03:27:03;;;;;;;;;;;;;;;-0.11;76.75;96936.75;4968671;28;19941;-87
2023/12/05 03:29:51;;;;;;;;;;;;;;;0.00;76.95;96949.09;4968317;28;20275;-87
2023/12/05 03:32:40;;;;;;;;;;;;;;;0.03;77.06;96953.88;4968704;28;20368;-87
2023/12/05 03:35:29;;;;;;;;;;;;;;;0.09;76.91;96952.00;4961552;28;19922;-86
2023/12/05 03:38:42;;;;;;;;;;;;;;;0.31;75.97;96949.84;4949755;28;19976;-85
2023/12/05 03:41:58;;;;;;;;;;;;;;;0.51;75.40;96955.16;4953520;28;19926;-85
2023/12/05 03:44:48;;;;;;;;;;;;;;;0.40;75.87;96958.94;4969408;28;19922;-88
2023/12/05 03:47:36;;;;;;;;;;;;;;;0.26;76.23;96964.00;4968566;28;19926;-89
2023/12/05 03:50:25;;;;;;;;;;;;;;;0.49;75.95;96959.19;4966394;28;19938;-88
2023/12/05 03:53:13;;;;;;;;;;;;;;;0.30;75.82;96952.78;4960859;28;19922;-87
2023/12/05 03:56:01;;;;;;;;;;;;;;;0.51;76.05;96957.84;4968519;28;19996;-87
2023/12/05 03:58:51;;;;;;;;;;;;;;;0.54;75.87;96959.19;4953262;28;19933;-83
2023/12/05 04:01:41;;;;;;;;;;;;;;;0.74;75.26;96963.66;4964495;28;19934;-84
2023/12/05 04:04:29;;;;;;;;;;;;;;;0.46;75.57;96960.53;4967911;28;20264;-89
2023/12/05 04:07:18;;;;;;;;;;;;;;;0.80;75.23;96954.59;4960993;28;19929;-88
2023/12/05 04:10:06;;;;;;;;;;;;;;;0.64;75.70;96950.31;4967125;28;20360;-88
2023/12/05 04:12:55;;;;;;;;;;;;;;;0.87;75.12;96957.78;4959442;28;19929;-84
2023/12/05 04:15:43;;;;;;;;;;;;;;;0.75;74.87;96960.75;4971112;28;19922;-86
2023/12/05 04:18:33;;;;;;;;;;;;;;;1.03;74.41;96956.66;4970007;28;19934;-86
2023/12/05 04:21:22;;;;;;;;;;;;;;;0.94;74.43;96962.81;4962386;28;20431;-87
2023/12/05 04:24:10;;;;;;;;;;;;;;;0.75;75.00;96963.41;4964368;28;20287;-87
2023/12/05 04:26:58;;;;;;;;;;;;;;;0.90;74.58;96967.91;4968250;28;20279;-89
2023/12/05 04:29:47;;;;;;;;;;;;;;;0.81;74.57;96964.22;4969440;28;19922;-88
2023/12/05 04:32:35;;;;;;;;;;;;;;;0.89;74.97;96960.97;4966354;28;19926;-88
2023/12/05 04:35:25;;;;;;;;;;;;;;;0.74;74.78;96958.31;4964213;28;20287;-83
2023/12/05 04:38:14;;;;;;;;;;;;;;;0.79;74.65;96961.00;4955868;28;20012;-89
2023/12/05 04:41:02;;;;;;;;;;;;;;;0.82;75.06;96962.34;4969637;28;20134;-89
2023/12/05 04:43:53;;;;;;;;;;;;;;;0.70;75.13;96965.31;4970969;28;19922;-88
2023/12/05 04:47:07;;;;;;;;;;;;;;;0.86;74.51;96966.88;4961847;28;19945;-84
2023/12/05 04:50:20;;;;;;;;;;;;;;;0.69;75.25;96971.69;4968683;28;21565;-81
2023/12/05 04:53:10;;;;;;;;;;;;;;;0.87;74.89;96962.31;4955723;28;19930;-83
2023/12/05 04:55:58;;;;;;;;;;;;;;;0.69;74.53;96964.50;4969528;28;20376;-87
2023/12/05 04:58:47;;;;;;;;;;;;;;;0.76;74.77;96966.91;4970836;28;19926;-88
2023/12/05 05:01:35;;;;;;;;;;;;;;;0.79;74.68;96966.34;4970710;28;20020;-87
2023/12/05 05:04:24;;;;;;;;;;;;;;;0.78;75.08;96964.75;4963306;28;20312;-88
2023/12/05 05:07:13;;;;;;;;;;;;;;;0.98;74.30;96959.34;4971244;28;20352;-86
2023/12/05 05:10:03;;;;;;;;;;;;;;;0.83;74.01;96963.94;4969909;28;19934;-87
2023/12/05 05:12:52;;;;;;;;;;;;;;;0.98;73.46;96975.38;4974630;28;20021;-88
2023/12/05 05:16:05;;;;;;;;;;;;;;;0.75;74.21;96967.97;4971929;28;19923;-87
2023/12/05 05:18:55;;;;;;;;;;;;;;;1.24;73.36;96967.28;4966049;28;19933;-90
2023/12/05 05:21:43;;;;;;;;;;;;;;;1.37;72.97;96972.00;4957231;28;20395;-87
2023/12/05 05:24:35;;;;;;;;;;;;;;;1.21;73.63;96967.81;4972513;28;19929;-86
2023/12/05 05:27:25;;;;;;;;;;;;;;;1.45;72.81;96976.81;4966665;28;19922;-87
2023/12/05 05:30:38;;;;;;;;;;;;;;;1.54;72.66;96977.81;4967581;28;19922;-82
2023/12/05 05:33:53;;;;;;;;;;;;;;;1.39;72.72;96964.53;4970480;28;19957;-85
2023/12/05 05:36:42;;;;;;;;;;;;;;;1.57;72.57;96971.13;4954107;28;20024;-87
2023/12/05 05:39:32;;;;;;;;;;;;;;;1.65;72.32;96969.72;4969096;28;20064;-84
2023/12/05 05:42:20;;;;;;;;;;;;;;;1.60;71.76;96972.44;4969969;28;20359;-87
2023/12/05 05:45:14;;;;;;;;;;;;;;;1.41;72.54;96961.56;4970237;28;19993;-87
2023/12/05 05:48:02;;;;;;;;;;;;;;;1.59;72.35;96977.00;4953378;28;20020;-86
2023/12/05 05:50:50;;;;;;;;;;;;;;;1.85;71.40;96983.00;4968032;28;20466;-83
2023/12/05 05:53:39;;;;;;;;;;;;;;;1.72;72.34;96973.72;4953490;28;20024;-85
2023/12/05 05:56:27;;;;;;;;;;;;;;;1.78;71.88;96969.13;4970738;28;19933;-84
2023/12/05 06:02:29;;;;;;;;;;;;;;;1.90;71.63;96974.13;4971259;28;20371;-83
2023/12/05 06:05:18;;;;;;;;;;;;;;;1.78;71.41;96969.94;4968974;28;20277;-85
2023/12/05 06:08:06;;;;;;;;;;;;;;;1.57;71.63;96965.78;4972526;28;19922;-81
2023/12/05 06:10:55;;;;;;;;;;;;;;;1.78;71.27;96966.44;4951687;28;19953;-84
2023/12/05 06:13:44;;;;;;;;;;;;;;;1.78;71.05;96979.84;4952729;28;19930;-86
2023/12/05 06:16:32;;;;;;;;;;;;;;;1.38;72.63;96975.50;4969675;28;20319;-80
2023/12/05 06:19:22;;;;;;;;;;;;;;;1.67;72.15;96983.66;4963509;28;19934;-87
2023/12/05 06:22:10;;;;;;;;;;;;;;;1.92;71.09;96975.47;4968044;28;20017;-82
2023/12/05 06:28:35;;;;;;;;;;;;;;;1.56;71.96;96981.03;4964052;28;19922;-80
2023/12/05 06:31:24;;;;;;;;;;;;;;;1.57;72.06;96987.19;4968380;28;20372;-85
2023/12/05 06:34:12;;;;;;;;;;;;;;;1.49;72.53;96979.72;4973293;28;19978;-84
2023/12/05 06:37:26;;;;;;;;;;;;;;;1.78;71.72;96977.16;4953151;28;19981;-83
2023/12/05 06:40:15;;;;;;;;;;;;;;;1.88;71.49;96982.44;4957108;28;20353;-87
2023/12/05 06:43:04;;;;;;;;;;;;;;;2.11;70.61;96988.97;4974917;28;20025;-82
2023/12/05 06:45:52;;;;;;;;;;;;;;;1.84;71.10;96994.78;4964358;28;19926;-82
2023/12/05 06:48:42;;;;;;;;;;;;;;;1.97;70.38;96988.84;4970936;28;19922;-81
2023/12/05 06:51:31;;;;;;;;;;;;;;;1.12;73.36;96985.50;4966788;28;19934;-83
2023/12/05 06:54:21;;;;;;;;;;;;;;;1.04;73.51;96985.00;4958378;28;19926;-85
2023/12/05 06:57:35;;;;;;;;;;;;;;;1.35;72.23;96992.91;4971941;28;19922;-82
2023/12/05 07:00:49;;;;;;;;;;;;;;;1.09;73.27;96986.84;4949509;28;19922;-80
2023/12/05 07:04:03;;;;;;;;;;;;;;;1.21;72.71;96994.56;4956087;28;20261;-80
2023/12/05 07:06:52;;;;;;;;;;;;;;;1.42;71.74;97000.63;4966158;28;20495;-81
2023/12/05 07:09:40;;;;;;;;;;;;;;;1.43;71.12;97003.03;4956455;28;20017;-80
2023/12/05 07:12:28;;;;;;;;;;;;;;;1.58;70.82;97016.34;4967591;28;19952;-80
2023/12/05 07:15:42;;;;;;;;;;;;;;;1.70;70.23;97029.41;4967976;28;20273;-80
2023/12/05 07:18:55;;;;;;;;;;;;;;;1.75;69.90;97031.25;4970034;28;19953;-80
2023/12/05 07:21:45;;;;;;;;;;;;;;;1.63;70.05;97028.91;4961122;28;20379;-80
2023/12/05 07:24:34;;;;;;;;;;;;;;;1.46;70.36;97029.25;4947143;28;20381;-80
2023/12/05 07:27:23;;;;;;;;;;;;;;;1.41;70.73;97023.94;4965096;28;19922;-80
2023/12/05 07:30:12;;;;;;;;;;;;;;;1.59;70.02;97027.84;4965887;28;19930;-82
2023/12/05 07:33:25;;;;;;;;;;;;;;;1.17;70.87;97030.94;4966982;28;20395;-79
2023/12/05 07:36:14;;;;;;;;;;;;;;;0.96;72.02;97023.00;4966025;28;19922;-79
2023/12/05 07:39:03;;;;;;;;;;;;;;;1.23;71.72;97035.25;4967667;28;20032;-81
2023/12/05 07:41:52;;;;;;;;;;;;;;;1.40;70.90;97040.25;4970135;28;19945;-79
2023/12/05 07:44:40;;;;;;;;;;;;;;;1.37;70.90;97036.25;4955473;28;19929;-82
2023/12/05 07:47:28;;;;;;;;;;;;;;;1.36;71.14;97034.66;4952733;28;20289;-79
2023/12/05 07:50:43;;;;;;;;;;;;;;;1.40;71.24;97041.06;4968530;28;20345;-81
2023/12/05 07:53:32;;;;;;;;;;;;;;;1.54;70.95;97044.72;4964241;28;20024;-82
2023/12/05 07:56:21;;;;;;;;;;;;;;;1.57;70.73;97046.88;4969781;28;19929;-80
2023/12/05 07:59:10;;;;;;;;;;;;;;;1.84;69.94;97051.03;4968115;28;19929;-82
2023/12/05 08:01:58;;;;;;;;;;;;;;;1.85;69.41;97044.59;4965548;28;19926;-81
2023/12/05 08:05:13;;;;;;;;;;;;;;;1.56;70.65;97044.47;4968254;28;19929;-81
2023/12/05 08:08:08;;;;;;;;;;;;;;;1.49;70.79;97049.31;4953878;28;19922;-82
2023/12/05 08:10:56;;;;;;;;;;;;;;;1.57;71.53;97054.91;4969202;28;20024;-80
2023/12/05 08:14:10;;;;;;;;;;;;;;;1.72;70.61;97053.25;4953101;28;19929;-80
2023/12/05 08:17:22;;;;;;;;;;;;;;;1.92;70.36;97058.50;4968119;28;19930;-81
2023/12/05 08:20:12;;;;;;;;;;;;;;;2.23;69.50;97061.78;4950687;28;19934;-81
2023/12/05 08:26:38;;;;;;;;;;;;;;;2.23;69.66;97058.31;4967024;28;20595;-81
2023/12/05 08:29:27;;;;;;;;;;;;;;;2.08;69.60;97061.91;4970016;28;19944;-81
2023/12/05 08:32:16;;;;;;;;;;;;;;;2.07;70.15;97063.75;4969179;28;19985;-81
2023/12/05 08:35:07;;;;;;;;;;;;;;;2.25;69.53;97069.56;4950619;28;19929;-82
2023/12/05 08:37:57;;;;;;;;;;;;;;;2.53;69.04;97068.03;4963618;28;19922;-80
2023/12/05 08:40:45;;;;;;;;;;;;;;;2.18;70.42;97067.16;4952427;28;20021;-78
2023/12/05 08:46:46;;;;;;;;;;;;;;;2.54;69.91;97072.28;4965441;28;19926;-80
2023/12/05 08:49:59;;;;;;;;;;;;;;;2.47;69.40;97080.66;4965425;28;19926;-78
2023/12/05 08:53:13;;;;;;;;;;;;;;;2.80;68.81;97076.38;4968485;28;20070;-81
2023/12/05 08:56:04;;;;;;;;;;;;;;;2.75;68.86;97075.63;4964886;28;19923;-81
2023/12/05 08:58:53;;;;;;;;;;;;;;;2.80;69.04;97079.06;4949269;28;19932;-80
2023/12/05 09:01:42;;;;;;;;;;;;;;;2.90;68.88;97083.53;4967012;28;19926;-79
2023/12/05 09:04:30;;;;;;;;;;;;;;;2.89;68.71;97087.31;4968329;28;19930;-82
2023/12/05 09:07:19;;;;;;;;;;;;;;;2.43;69.84;97084.19;4968629;28;20280;-80
2023/12/05 09:10:08;;;;;;;;;;;;;;;2.87;69.32;97079.53;4964854;28;19922;-81
2023/12/05 09:12:57;;;;;;;;;;;;;;;2.95;69.28;97080.00;4962060;28;19926;-79
2023/12/05 09:15:46;;;;;;;;;;;;;;;2.94;69.14;97083.78;4968846;28;19922;-82
2023/12/05 09:18:36;;;;;;;;;;;;;;;3.11;68.64;97074.22;4970809;28;19992;-80
2023/12/05 09:21:25;;;;;;;;;;;;;;;2.96;68.58;97082.41;4968752;28;19944;-78
2023/12/05 09:24:17;;;;;;;;;;;;;;;3.15;68.96;97080.63;4963693;28;19969;-81
2023/12/05 09:27:05;;;;;;;;;;;;;;;2.97;69.91;97078.63;4960847;28;20167;-80
2023/12/05 09:29:56;;;;;;;;;;;;;;;3.23;69.24;97078.41;4970329;28;19922;-79
2023/12/05 09:35:58;;;;;;;;;;;;;;;3.02;70.06;97085.84;4970758;28;20295;-79
2023/12/05 09:39:12;;;;;;;;;;;;;;;3.25;69.18;97086.97;4974737;28;20078;-82
2023/12/05 09:42:26;;;;;;;;;;;;;;;3.08;70.46;97088.19;4955822;28;19926;-79
2023/12/05 09:45:16;;;;;;;;;;;;;;;3.29;69.79;97094.16;4970544;28;20388;-84
2023/12/05 09:48:05;;;;;;;;;;;;;;;3.29;70.33;97082.63;4969069;28;19930;-80
2023/12/05 09:50:54;;;;;;;;;;;;;;;3.30;69.90;97076.16;4969456;28;20356;-82
2023/12/05 09:53:42;;;;;;;;;;;;;;;3.33;70.12;97083.66;4970564;28;19922;-80
2023/12/05 09:56:30;;;;;;;;;;;;;;;3.53;69.29;97085.34;4965510;28;20379;-81
2023/12/05 09:59:18;;;;;;;;;;;;;;;3.47;69.84;97081.91;4972729;28;19922;-81
2023/12/05 10:02:32;;;;;;;;;;;;;;;3.83;68.90;97086.84;4952371;28;19926;-81
2023/12/05 10:05:21;;;;;;;;;;;;;;;3.47;70.36;97081.13;4971633;28;19953;-80
2023/12/05 10:08:10;;;;;;;;;;;;;;;3.56;69.71;97082.06;4972624;28;19923;-79
2023/12/05 10:11:00;;;;;;;;;;;;;;;3.55;69.29;97080.47;4958171;28;19922;-80
2023/12/05 10:13:48;;;;;;;;;;;;;;;3.80;68.86;97084.75;4970291;28;20364;-83
2023/12/05 10:16:36;;;;;;;;;;;;;;;3.79;68.79;97088.53;4968678;28;19926;-81
2023/12/05 10:19:24;;;;;;;;;;;;;;;3.70;69.17;97085.66;4968241;28;19968;-82
2023/12/05 10:22:14;;;;;;;;;;;;;;;4.11;68.42;97085.97;4970325;28;19929;-83
2023/12/05 10:28:48;;;;;;;;;;;;;;;4.53;67.13;97084.28;4958677;28;19922;-83
2023/12/05 10:31:37;;;;;;;;;;;;;;;4.63;66.83;97081.41;4966689;28;20025;-82
2023/12/05 10:34:26;;;;;;;;;;;;;;;4.72;66.69;97073.50;4975314;28;20009;-81
2023/12/05 10:37:21;;;;;;;;;;;;;;;4.85;66.08;97074.66;4973364;28;19945;-79
2023/12/05 10:40:10;;;;;;;;;;;;;;;4.82;66.42;97075.22;4954952;28;19922;-81
2023/12/05 10:42:59;;;;;;;;;;;;;;;4.82;66.77;97069.84;4970934;28;19922;-80
2023/12/05 10:45:48;;;;;;;;;;;;;;;4.93;66.40;97069.38;4972478;28;19922;-84
2023/12/05 10:48:37;;;;;;;;;;;;;;;4.87;66.29;97081.31;4970675;28;19926;-80
2023/12/05 10:51:26;;;;;;;;;;;;;;;4.86;66.56;97076.25;4968570;28;19997;-82
2023/12/05 10:54:17;;;;;;;;;;;;;;;5.08;65.88;97068.31;4965689;28;19929;-82
2023/12/05 10:57:09;;;;;;;;;;;;;;;4.93;66.06;97069.38;4969102;28;19926;-82
2023/12/05 10:59:58;;;;;;;;;;;;;;;5.02;65.75;97066.81;4962525;28;19923;-83
2023/12/05 11:02:47;;;;;;;;;;;;;;;4.97;66.08;97058.81;4955785;28;19941;-80
2023/12/05 11:05:36;;;;;;;;;;;;;;;5.05;65.94;97065.41;4967176;28;19930;-81
2023/12/05 11:08:27;;;;;;;;;;;;;;;5.07;65.43;97058.66;4968582;28;19930;-79
2023/12/05 11:11:18;;;;;;;;;;;;;;;5.24;65.54;97064.25;4962270;28;19922;-83
2023/12/05 11:14:06;;;;;;;;;;;;;;;4.88;66.25;97069.47;4966617;28;20416;-81
2023/12/05 11:17:20;;;;;;;;;;;;;;;4.78;66.71;97058.06;4967343;28;19937;-80
2023/12/05 11:20:12;;;;;;;;;;;;;;;4.56;67.38;97054.09;4968138;28;20001;-80
2023/12/05 11:26:50;;;;;;;;;;;;;;;5.07;66.05;97057.84;4969362;28;19952;-79
2023/12/05 11:29:56;;;;;;;;;;;;;;;4.96;66.69;97054.53;4970244;28;19922;-79
2023/12/05 11:32:48;;;;;;;;;;;;;;;4.88;66.96;97045.25;4969324;28;19922;-79
2023/12/05 11:35:39;;;;;;;;;;;;;;;5.18;66.57;97046.59;4968582;28;20041;-80
2023/12/05 11:45:48;;;;;;;;;;;;;;;5.34;66.55;97057.88;4968051;28;19918;-79
2023/12/05 11:48:36;;;;;;;;;;;;;;;4.69;68.41;97058.75;4972623;28;20387;-83
2023/12/05 11:51:24;;;;;;;;;;;;;;;4.56;69.14;97059.50;4967912;28;19922;-80
2023/12/05 11:54:13;;;;;;;;;;;;;;;5.01;67.99;97070.59;4967352;28;20335;-82
2023/12/05 11:57:10;;;;;;;;;;;;;;;5.15;67.92;97066.03;4965849;28;20391;-80
2023/12/05 11:59:58;;;;;;;;;;;;;;;5.17;67.63;97073.84;4966096;28;19992;-79
2023/12/05 12:02:49;;;;;;;;;;;;;;;5.34;67.44;97065.19;4970699;28;19937;-80
2023/12/05 12:05:38;;;;;;;;;;;;;;;5.40;67.13;97063.97;4968564;28;19998;-80
2023/12/05 12:18:54;;;;;;;;;;;;;;;5.84;65.76;97071.47;4956634;28;20323;-80
2023/12/05 12:21:42;;;;;;;;;;;;;;;6.09;64.90;97064.78;4967029;28;20320;-80
2023/12/05 12:24:32;;;;;;;;;;;;;;;5.94;65.09;97062.41;4964670;28;19934;-83
2023/12/05 12:27:22;;;;;;;;;;;;;;;5.86;65.51;97069.28;4968440;28;20057;-79
2023/12/05 12:30:13;;;;;;;;;;;;;;;5.99;64.73;97060.38;4952195;28;19937;-80
2023/12/05 12:33:05;;;;;;;;;;;;;;;5.92;65.11;97061.91;4965187;28;20335;-80
2023/12/05 12:35:55;;;;;;;;;;;;;;;6.01;64.91;97057.38;4969087;28;20269;-80
2023/12/05 12:38:49;;;;;;;;;;;;;;;5.82;65.20;97062.09;4963087;28;20434;-81
2023/12/05 12:44:51;;;;;;;;;;;;;;;5.66;65.53;97054.31;4966411;28;20275;-81
2023/12/05 12:47:41;;;;;;;;;;;;;;;5.81;65.26;97055.09;4966962;28;20294;-83
2023/12/05 12:50:29;;;;;;;;;;;;;;;5.83;65.29;97050.19;4964685;28;20068;-81
2023/12/05 12:53:21;;;;;;;;;;;;;;;5.72;65.69;97055.00;4969899;28;19929;-80
2023/12/05 12:56:10;;;;;;;;;;;;;;;5.82;65.93;97049.41;4966168;28;19972;-80
2023/12/05 12:58:59;;;;;;;;;;;;;;;5.85;65.74;97043.41;4966407;28;19922;-82
2023/12/05 13:01:50;;;;;;;;;;;;;;;5.53;67.07;97052.41;4966861;28;19923;-80
2023/12/05 13:04:38;;;;;;;;;;;;;;;5.65;66.27;97051.94;4970490;28;19922;-80
2023/12/05 13:07:29;;;;;;;;;;;;;;;5.73;66.32;97062.78;4971130;28;19922;-80
2023/12/05 13:10:42;;;;;;;;;;;;;;;5.85;66.63;97053.38;4961815;28;19969;-82
2023/12/05 13:13:55;;;;;;;;;;;;;;;5.78;66.54;97061.88;4970386;28;19929;-81
2023/12/05 13:17:08;;;;;;;;;;;;;;;5.76;66.48;97056.81;4969852;28;20020;-79
2023/12/05 13:20:05;;;;;;;;;;;;;;;5.71;66.86;97061.50;4970108;28;20012;-80
2023/12/05 13:26:31;;;;;;;;;;;;;;;5.78;66.67;97057.28;4969999;28;19933;-81
2023/12/05 13:29:24;;;;;;;;;;;;;;;5.86;66.67;97057.66;4965944;28;19937;-79
2023/12/05 13:32:13;;;;;;;;;;;;;;;5.79;66.77;97061.56;4970585;28;20557;-80
2023/12/05 13:35:01;;;;;;;;;;;;;;;5.82;66.71;97059.41;4972659;28;20360;-79
2023/12/05 13:37:51;;;;;;;;;;;;;;;5.92;66.47;97060.00;4966327;28;19922;-79
2023/12/05 13:40:39;;;;;;;;;;;;;;;5.91;66.29;97057.56;4966830;28;20009;-78
2023/12/05 13:43:27;;;;;;;;;;;;;;;5.88;66.65;97058.19;4968346;28;19929;-81
2023/12/05 13:46:41;;;;;;;;;;;;;;;5.98;66.42;97058.00;4970962;28;20296;-80
2023/12/05 13:50:20;;;;;;;;;;;;;;;5.79;68.06;97064.28;4970821;28;19934;-81
2023/12/05 13:53:33;;;;;;;;;;;;;;;5.83;67.89;97069.88;4970305;28;20069;-79
2023/12/05 13:56:26;;;;;;;;;;;;;;;5.99;67.78;97067.69;4970519;28;19926;-80
2023/12/05 13:59:14;;;;;;;;;;;;;;;6.05;67.38;97066.47;4953512;28;19922;-79
2023/12/05 14:02:28;;;;;;;;;;;;;;;6.00;66.73;97070.06;4966291;28;19961;-83
2023/12/05 14:05:17;;;;;;;;;;;;;;;5.83;67.50;97074.47;4965724;28;19929;-79
2023/12/05 14:08:07;;;;;;;;;;;;;;;5.78;67.46;97080.75;4972527;28;20061;-80
2023/12/05 14:11:20;;;;;;;;;;;;;;;5.84;67.28;97082.25;4970186;28;19926;-80
2023/12/05 14:14:09;;;;;;;;;;;;;;;5.83;67.58;97086.03;4971093;28;19945;-79
2023/12/05 14:20:10;;;;;;;;;;;;;;;5.66;68.06;97083.94;4975026;28;19934;-79
2023/12/05 14:23:23;;;;;;;;;;;;;;;5.74;68.07;97082.44;4971434;28;20042;-81
2023/12/05 14:26:36;;;;;;;;;;;;;;;5.77;68.28;97088.03;4967020;28;19980;-79
2023/12/05 14:29:26;;;;;;;;;;;;;;;5.78;68.46;97091.53;4970022;28;19930;-79
2023/12/05 14:32:16;;;;;;;;;;;;;;;5.41;68.90;97087.13;4970353;28;19927;-78
2023/12/05 14:35:04;;;;;;;;;;;;;;;5.56;69.13;97083.34;4965013;28;19979;-79
2023/12/05 14:37:53;;;;;;;;;;;;;;;5.61;68.63;97088.63;4964425;28;20053;-79
2023/12/05 14:40:43;;;;;;;;;;;;;;;5.60;68.17;97095.13;4970598;28;19922;-80
2023/12/05 14:43:32;;;;;;;;;;;;;;;5.64;68.64;97094.22;4970936;28;19922;-80
2023/12/05 14:49:58;;;;;;;;;;;;;;;5.62;70.46;97096.41;4963432;28;20134;-80
2023/12/05 14:53:12;;;;;;;;;;;;;;;5.57;70.39;97095.72;4967535;28;19933;-81
2023/12/05 14:56:00;;;;;;;;;;;;;;;5.45;71.29;97104.28;4967795;28;19965;-81
2023/12/05 14:58:49;;;;;;;;;;;;;;;5.39;71.03;97108.19;4964223;28;19923;-80
2023/12/05 15:01:39;;;;;;;;;;;;;;;5.44;71.11;97103.50;4967048;28;19927;-79
2023/12/05 15:04:28;;;;;;;;;;;;;;;5.25;71.28;97100.06;4971992;28;19935;-79
2023/12/05 15:07:16;;;;;;;;;;;;;;;5.37;71.23;97102.28;4969423;28;19922;-77
2023/12/05 15:10:06;;;;;;;;;;;;;;;5.25;70.99;97100.06;4970372;28;20335;-81
2023/12/05 15:12:56;;;;;;;;;;;;;;;5.36;71.27;97108.75;4968930;28;20394;-79
2023/12/05 15:15:44;;;;;;;;;;;;;;;5.28;71.13;97106.75;4971618;28;19965;-79
2023/12/05 15:18:34;;;;;;;;;;;;;;;5.19;70.95;97110.13;4969913;28;20264;-78
2023/12/05 15:21:23;;;;;;;;;;;;;;;5.18;70.86;97108.53;4973120;28;19928;-79
2023/12/05 15:24:19;;;;;;;;;;;;;;;5.30;71.08;97109.94;4969111;28;19941;-79
2023/12/05 15:27:07;;;;;;;;;;;;;;;5.28;70.38;97096.00;4967089;28;19940;-79
2023/12/05 15:29:56;;;;;;;;;;;;;;;5.32;70.66;97102.38;4971008;28;19926;-82
2023/12/05 15:32:50;;;;;;;;;;;;;;;5.31;70.50;97116.94;4964222;28;19929;-79
2023/12/05 15:35:40;;;;;;;;;;;;;;;5.05;71.37;97119.25;4971100;28;19922;-79
2023/12/05 15:41:48;;;;;;;;;;;;;;;5.25;70.69;97122.41;4964814;28;19934;-82
2023/12/05 15:44:42;;;;;;;;;;;;;;;5.43;70.68;97115.38;4967366;28;19926;-80
2023/12/05 15:47:31;;;;;;;;;;;;;;;5.35;70.84;97118.75;4968238;28;19922;-81
2023/12/05 15:50:20;;;;;;;;;;;;;;;5.40;70.34;97115.16;4963993;28;20016;-78
2023/12/05 15:53:10;;;;;;;;;;;;;;;5.25;70.28;97119.72;4971023;28;19922;-83
2023/12/05 15:55:59;;;;;;;;;;;;;;;5.33;70.00;97109.38;4968561;28;19922;-81
2023/12/05 15:58:47;;;;;;;;;;;;;;;5.48;69.84;97114.47;4970465;28;19948;-80
2023/12/05 16:01:35;;;;;;;;;;;;;;;5.36;69.54;97114.16;4955886;28;20372;-79
2023/12/05 16:04:23;;;;;;;;;;;;;;;5.20;70.56;97117.09;4964771;28;19927;-79
2023/12/05 16:07:12;;;;;;;;;;;;;;;4.98;70.65;97115.06;4965156;28;19934;-78
2023/12/05 16:10:04;;;;;;;;;;;;;;;4.93;71.12;97125.91;4960125;28;19937;-82
2023/12/05 16:12:53;;;;;;;;;;;;;;;5.17;70.71;97123.09;4970070;28;19926;-82
2023/12/05 16:19:01;;;;;;;;;;;;;;;5.31;69.67;97125.00;4967115;28;19922;-82
2023/12/05 16:21:50;;;;;;;;;;;;;;;5.35;69.83;97120.63;4956974;28;20284;-80
2023/12/05 16:24:39;;;;;;;;;;;;;;;5.45;69.56;97126.63;4968260;28;20389;-78